Time;durP1;ratioP1;P1;durP2;ratioP2;P2;SDS_P1;SDS_P2;PMS_P1;PMS_P2;Temp;Humidity;BMP_temperature;BMP_pressure;BME280_temperature;BME280_humidity;BME280_pressure;Samples;Min_cycle;Max_cycle;Signal;HPM_P1;HPM_P2
2022/07/03 00:01:18;;;;;;;43.90;35.92;;;25.90;99.90;;;;;;4993259;28;20026;-66
2022/07/03 00:03:45;;;;;;;48.90;36.72;;;25.90;99.90;;;;;;4994456;28;20031;-65
2022/07/03 00:06:12;;;;;;;50.10;36.03;;;25.90;99.90;;;;;;4994392;28;20045;-68
2022/07/03 00:08:39;;;;;;;73.82;55.83;;;26.00;99.90;;;;;;4994388;28;20404;-69
2022/07/03 00:11:06;;;;;;;62.50;43.42;;;26.00;99.90;;;;;;4994315;28;20042;-65
2022/07/03 00:13:33;;;;;;;44.13;34.50;;;26.00;99.90;;;;;;4994204;28;20030;-65
2022/07/03 00:16:00;;;;;;;43.13;31.08;;;26.00;99.90;;;;;;5017681;28;20504;-65
2022/07/03 00:18:27;;;;;;;48.90;36.30;;;26.10;99.90;;;;;;5055727;28;20021;-65
2022/07/03 00:21:02;;;;;;;62.28;43.58;;;26.20;99.90;;;;;;5055312;28;20029;-65
2022/07/03 00:23:35;;;;;;;47.47;32.65;;;26.40;99.90;;;;;;5055403;28;20100;-65
2022/07/03 00:26:05;;;;;;;31.45;22.42;;;26.50;99.90;;;;;;5055341;28;20053;-65
2022/07/03 00:28:33;;;;;;;39.03;23.95;;;26.50;99.90;;;;;;5055318;28;20428;-65
2022/07/03 00:31:00;;;;;;;32.58;22.15;;;26.50;99.90;;;;;;5055304;28;20098;-65
2022/07/03 00:33:29;;;;;;;31.58;21.20;;;26.50;99.90;;;;;;5054975;28;20517;-65
2022/07/03 00:35:56;;;;;;;32.95;20.02;;;26.60;99.90;;;;;;5054988;28;20482;-65
2022/07/03 00:38:24;;;;;;;27.25;18.33;;;26.60;99.90;;;;;;5055101;28;20021;-66
2022/07/03 00:40:50;;;;;;;30.48;20.92;;;26.70;99.90;;;;;;5054807;28;20025;-65
2022/07/03 00:43:18;;;;;;;36.85;25.60;;;26.70;99.90;;;;;;5055052;28;20013;-65
2022/07/03 00:45:49;;;;;;;38.20;26.00;;;26.80;99.90;;;;;;5055001;28;20413;-66
2022/07/03 00:48:17;;;;;;;38.35;29.33;;;26.90;99.90;;;;;;5054850;28;20028;-64
2022/07/03 00:50:49;;;;;;;186.38;162.18;;;27.00;99.90;;;;;;5054804;28;20025;-65
2022/07/03 00:53:37;;;;;;;70.50;52.88;;;27.00;99.90;;;;;;5054407;28;20108;-65
2022/07/03 00:56:05;;;;;;;39.60;28.67;;;27.00;99.90;;;;;;5054650;28;20051;-65
2022/07/03 00:58:34;;;;;;;31.90;25.70;;;27.00;99.90;;;;;;5054737;28;20021;-66
2022/07/03 01:01:01;;;;;;;41.78;31.58;;;27.00;99.90;;;;;;5054868;28;20021;-66
2022/07/03 01:03:32;;;;;;;29.55;22.63;;;27.10;99.90;;;;;;5054079;28;20021;-66
2022/07/03 01:06:09;;;;;;;27.65;21.20;;;27.10;99.90;;;;;;5054470;28;20063;-66
2022/07/03 01:08:44;;;;;;;28.77;19.75;;;27.20;99.90;;;;;;5054455;28;20029;-65
2022/07/03 01:11:22;;;;;;;26.27;20.33;;;27.20;99.90;;;;;;5054619;28;20025;-65
2022/07/03 01:13:56;;;;;;;28.23;18.50;;;27.10;99.90;;;;;;5054590;28;20036;-65
2022/07/03 01:16:40;;;;;;;30.55;20.83;;;27.10;99.90;;;;;;5054854;28;20025;-64
2022/07/03 01:19:30;;;;;;;29.90;20.60;;;27.10;99.90;;;;;;5054680;28;20023;-64
2022/07/03 01:22:18;;;;;;;40.22;27.35;;;27.20;99.90;;;;;;5054171;28;20466;-65
2022/07/03 01:25:03;;;;;;;57.47;40.17;;;27.30;99.90;;;;;;4954121;29;20082;-65
2022/07/03 01:27:41;;;;;;;40.08;27.77;;;27.30;99.90;;;;;;4953894;29;20223;-68
2022/07/03 01:30:10;;;;;;;33.35;21.63;;;27.20;99.90;;;;;;4954191;29;20445;-66
2022/07/03 01:32:44;;;;;;;29.08;21.42;;;27.20;99.90;;;;;;4954403;29;20031;-67
2022/07/03 01:35:20;;;;;;;34.88;24.15;;;27.20;99.90;;;;;;4954131;29;20038;-67
2022/07/03 01:37:48;;;;;;;34.85;24.08;;;27.40;99.90;;;;;;4954177;29;20039;-68
2022/07/03 01:40:17;;;;;;;28.83;22.23;;;27.40;99.90;;;;;;4954177;29;20484;-66
2022/07/03 01:42:45;;;;;;;28.20;20.92;;;27.50;99.90;;;;;;4953920;29;20035;-66
2022/07/03 01:45:15;;;;;;;25.50;19.63;;;27.50;99.90;;;;;;4953965;29;20042;-66
2022/07/03 01:47:45;;;;;;;24.23;17.48;;;27.70;99.90;;;;;;4954128;29;20448;-66
2022/07/03 01:50:14;;;;;;;33.47;21.77;;;27.80;99.90;;;;;;4953767;29;20468;-66
2022/07/03 01:52:43;;;;;;;27.45;20.50;;;27.90;99.90;;;;;;4953947;29;20045;-66
2022/07/03 01:55:11;;;;;;;28.15;20.08;;;27.90;99.90;;;;;;4953917;29;20046;-66
2022/07/03 01:57:49;;;;;;;23.98;17.85;;;28.00;99.90;;;;;;4953842;29;20031;-67
2022/07/03 02:00:21;;;;;;;33.55;20.63;;;28.00;99.90;;;;;;4953790;29;20040;-66
2022/07/03 02:02:56;;;;;;;30.70;22.25;;;28.10;99.90;;;;;;4953731;29;20445;-66
2022/07/03 02:05:23;;;;;;;44.60;32.63;;;28.10;99.90;;;;;;4953096;28;20035;-66
2022/07/03 02:08:02;;;;;;;38.03;25.40;;;28.30;99.90;;;;;;4981384;28;20478;-66
2022/07/03 02:10:33;;;;;;;38.38;29.88;;;28.30;99.90;;;;;;5033272;28;20029;-66
2022/07/03 02:13:10;;;;;;;34.00;22.02;;;28.40;99.90;;;;;;5033282;28;20029;-64
2022/07/03 02:15:42;;;;;;;30.02;21.08;;;28.50;99.90;;;;;;5032702;28;20068;-66
2022/07/03 02:18:31;;;;;;;36.17;20.95;;;28.60;99.90;;;;;;5030892;28;20017;-66
2022/07/03 02:21:20;;;;;;;213.50;162.88;;;28.50;99.90;;;;;;4942122;29;20139;-66
2022/07/03 02:24:16;;;;;;;41.92;29.27;;;28.60;99.90;;;;;;4944946;29;20110;-65
2022/07/03 02:26:53;;;;;;;31.42;18.83;;;28.80;99.90;;;;;;4944408;29;20102;-66
2022/07/03 02:29:26;;;;;;;30.88;18.58;;;28.90;99.90;;;;;;4944877;29;20035;-66
2022/07/03 02:31:59;;;;;;;41.03;17.90;;;28.90;99.90;;;;;;4945465;29;20102;-67
2022/07/03 02:34:28;;;;;;;30.05;18.38;;;28.90;99.90;;;;;;4944341;29;20032;-68
2022/07/03 02:37:03;;;;;;;27.95;17.65;;;29.00;99.90;;;;;;4966082;28;20055;-67
2022/07/03 02:39:44;;;;;;;26.30;17.38;;;28.90;99.90;;;;;;4972391;28;20027;-66
2022/07/03 02:42:40;;;;;;;31.42;17.27;;;29.00;99.90;;;;;;4972486;28;20033;-66
2022/07/03 02:45:10;;;;;;;26.77;18.05;;;29.00;99.90;;;;;;4970281;28;20494;-66
2022/07/03 02:47:46;;;;;;;28.48;16.45;;;29.10;99.90;;;;;;4971020;28;20110;-66
2022/07/03 02:50:20;;;;;;;26.60;19.55;;;29.10;99.90;;;;;;4969529;28;20065;-65
2022/07/03 02:53:12;;;;;;;65.28;51.72;;;29.30;99.90;;;;;;5052110;28;20029;-66
2022/07/03 02:55:43;;;;;;;29.08;21.98;;;29.40;99.90;;;;;;5051272;28;20027;-66
2022/07/03 02:58:14;;;;;;;35.05;24.20;;;29.50;99.90;;;;;;5050499;28;20390;-65
2022/07/03 03:00:57;;;;;;;137.55;100.22;;;29.50;99.90;;;;;;5051136;28;20028;-66
2022/07/03 03:03:28;;;;;;;66.32;38.47;;;29.50;99.90;;;;;;5051665;28;20445;-66
2022/07/03 03:06:02;;;;;;;30.13;22.60;;;29.60;99.90;;;;;;5050662;28;20035;-68
2022/07/03 03:08:48;;;;;;;25.73;19.85;;;29.70;99.90;;;;;;5051291;28;20256;-68
2022/07/03 03:11:28;;;;;;;27.70;19.13;;;29.80;99.90;;;;;;5050918;28;20120;-68
2022/07/03 03:13:57;;;;;;;34.03;23.50;;;29.90;99.90;;;;;;5051065;28;20017;-68
2022/07/03 03:16:25;;;;;;;32.60;21.58;;;29.90;99.90;;;;;;5052214;28;20029;-69
2022/07/03 03:18:51;;;;;;;37.70;23.60;;;29.90;99.90;;;;;;5055460;28;20017;-69
2022/07/03 03:21:20;;;;;;;34.60;23.77;;;30.00;99.90;;;;;;5054723;28;20009;-68
2022/07/03 03:23:49;;;;;;;29.52;21.80;;;30.20;99.90;;;;;;5036940;28;20021;-68
2022/07/03 03:26:20;;;;;;;28.85;22.17;;;30.20;99.90;;;;;;5053781;28;20029;-66
2022/07/03 03:28:47;;;;;;;34.17;23.33;;;30.20;99.90;;;;;;5054027;28;20104;-66
2022/07/03 03:31:14;;;;;;;29.50;23.17;;;30.30;99.90;;;;;;5055125;28;20033;-67
2022/07/03 03:33:44;;;;;;;92.78;65.05;;;30.30;99.90;;;;;;5054848;28;20029;-66
2022/07/03 03:36:12;;;;;;;43.50;25.60;;;30.40;99.90;;;;;;5054762;28;20052;-66
2022/07/03 03:38:40;;;;;;;36.75;20.58;;;30.50;99.90;;;;;;5052581;28;20071;-65
2022/07/03 03:41:08;;;;;;;35.92;21.05;;;30.40;99.90;;;;;;5053272;28;20524;-65
2022/07/03 03:43:35;;;;;;;37.75;21.70;;;30.40;99.90;;;;;;5055619;28;20449;-67
2022/07/03 03:46:03;;;;;;;68.85;49.10;;;30.50;99.90;;;;;;5054362;28;20033;-66
2022/07/03 03:48:31;;;;;;;44.92;26.45;;;30.60;99.90;;;;;;5053144;28;20033;-68
2022/07/03 03:51:00;;;;;;;32.30;20.00;;;30.60;99.90;;;;;;5054896;28;20025;-66
2022/07/03 03:53:28;;;;;;;28.70;19.38;;;30.70;99.90;;;;;;5053950;28;20053;-65
2022/07/03 03:56:01;;;;;;;34.15;19.25;;;30.70;99.90;;;;;;5053054;28;20146;-64
2022/07/03 03:58:30;;;;;;;27.52;17.95;;;30.80;99.90;;;;;;5052752;28;20024;-64
2022/07/03 04:00:57;;;;;;;16.77;11.55;;;30.90;99.90;;;;;;5054770;28;20037;-64
2022/07/03 04:03:25;;;;;;;17.17;12.73;;;31.00;99.90;;;;;;5055006;28;20155;-64
2022/07/03 04:05:52;;;;;;;26.95;18.00;;;31.20;99.90;;;;;;5055071;28;20036;-63
2022/07/03 04:08:20;;;;;;;27.50;19.48;;;31.20;99.90;;;;;;5055306;28;20039;-64
2022/07/03 04:10:48;;;;;;;21.27;15.07;;;31.30;99.90;;;;;;5052584;28;20021;-64
2022/07/03 04:13:16;;;;;;;20.63;14.45;;;31.40;99.90;;;;;;5055267;28;20082;-64
2022/07/03 04:15:43;;;;;;;16.08;12.05;;;31.40;99.90;;;;;;5054759;28;20025;-64
2022/07/03 04:18:10;;;;;;;17.58;12.10;;;31.40;99.90;;;;;;5055346;28;20021;-64
2022/07/03 04:20:37;;;;;;;14.98;11.10;;;31.30;99.90;;;;;;5054891;28;20036;-63
2022/07/03 04:23:04;;;;;;;17.10;11.63;;;31.30;99.90;;;;;;5055216;28;20033;-63
2022/07/03 04:25:31;;;;;;;18.65;12.85;;;31.30;99.90;;;;;;5054925;28;20029;-63
2022/07/03 04:27:57;;;;;;;17.05;13.15;;;31.30;99.90;;;;;;5050953;28;20030;-66
2022/07/03 04:30:25;;;;;;;22.17;15.55;;;31.40;99.90;;;;;;5055414;28;20021;-65
2022/07/03 04:32:51;;;;;;;24.10;14.05;;;31.50;99.90;;;;;;5055530;28;20544;-66
2022/07/03 04:35:18;;;;;;;20.90;12.73;;;31.60;99.90;;;;;;5055293;28;20053;-66
2022/07/03 04:37:45;;;;;;;25.77;20.05;;;31.70;99.90;;;;;;5055709;28;20088;-65
2022/07/03 04:40:13;;;;;;;28.60;22.25;;;31.80;99.90;;;;;;5055025;28;20074;-63
2022/07/03 04:42:40;;;;;;;23.52;16.77;;;31.90;99.30;;;;;;5055675;28;20032;-63
2022/07/03 04:45:07;;;;;;;15.90;12.48;;;31.80;99.90;;;;;;5054744;28;20033;-63
2022/07/03 04:47:34;;;;;;;17.73;12.50;;;31.90;99.90;;;;;;5054283;28;20032;-64
2022/07/03 04:50:01;;;;;;;16.75;12.07;;;31.80;99.90;;;;;;5051331;28;20021;-63
2022/07/03 04:52:27;;;;;;;15.00;11.90;;;31.80;99.90;;;;;;5053136;28;20036;-63
2022/07/03 04:54:54;;;;;;;17.05;12.52;;;31.80;99.90;;;;;;5053482;28;20105;-63
2022/07/03 04:57:21;;;;;;;30.30;18.85;;;31.70;99.90;;;;;;5053522;28;20072;-62
2022/07/03 04:59:48;;;;;;;19.00;15.85;;;31.70;99.90;;;;;;5053932;28;20381;-64
2022/07/03 05:02:14;;;;;;;28.20;20.58;;;31.90;99.90;;;;;;5053790;28;20017;-62
2022/07/03 05:04:41;;;;;;;34.13;25.02;;;31.90;99.60;;;;;;5053750;28;20017;-63
2022/07/03 05:07:08;;;;;;;41.72;31.88;;;32.00;99.40;;;;;;5053717;28;20020;-63
2022/07/03 05:09:35;;;;;;;24.27;21.38;;;32.00;99.00;;;;;;5051367;28;20064;-64
2022/07/03 05:12:03;;;;;;;20.10;14.90;;;31.90;99.70;;;;;;5051874;28;20067;-64
2022/07/03 05:14:29;;;;;;;19.33;14.02;;;31.80;99.90;;;;;;5054159;28;20037;-64
2022/07/03 05:16:56;;;;;;;16.23;12.45;;;31.80;99.90;;;;;;5053866;28;20071;-64
2022/07/03 05:19:23;;;;;;;23.98;18.30;;;31.70;99.90;;;;;;5054098;28;20027;-62
2022/07/03 05:21:49;;;;;;;22.27;17.15;;;31.70;99.90;;;;;;5053989;28;20112;-63
2022/07/03 05:24:16;;;;;;;14.70;11.48;;;31.70;99.80;;;;;;5053612;28;20032;-65
2022/07/03 05:26:43;;;;;;;17.55;11.48;;;31.60;99.70;;;;;;5054057;28;20037;-64
2022/07/03 05:29:09;;;;;;;16.95;11.68;;;31.50;99.80;;;;;;5053767;28;20057;-64
2022/07/03 05:31:36;;;;;;;16.83;12.13;;;31.50;99.90;;;;;;5053885;28;20041;-64
2022/07/03 05:34:03;;;;;;;16.83;12.45;;;31.50;99.80;;;;;;5053660;28;20481;-65
2022/07/03 05:36:29;;;;;;;23.58;13.27;;;31.50;99.90;;;;;;5053518;28;20429;-65
2022/07/03 05:41:43;;;;;;;15.35;12.32;;;31.80;99.90;;;;;;4970060;28;20399;-65
2022/07/03 05:44:09;;;;;;;18.17;14.00;;;32.00;99.70;;;;;;4971231;28;20070;-66
2022/07/03 05:46:36;;;;;;;25.65;17.83;;;32.00;99.40;;;;;;4971397;28;20420;-65
2022/07/03 05:49:02;;;;;;;20.85;15.73;;;32.20;98.30;;;;;;4971439;28;20336;-67
2022/07/03 05:51:29;;;;;;;20.40;14.13;;;32.30;98.10;;;;;;4971438;28;20043;-65
2022/07/03 05:53:56;;;;;;;23.83;17.42;;;32.20;97.80;;;;;;4970895;28;20034;-64
2022/07/03 05:56:23;;;;;;;32.70;23.27;;;32.30;97.50;;;;;;4971073;28;20401;-66
2022/07/03 05:58:50;;;;;;;22.25;14.63;;;32.30;97.90;;;;;;4969381;28;20043;-65
2022/07/03 06:01:16;;;;;;;19.02;13.77;;;32.30;97.80;;;;;;4971036;28;20047;-66
2022/07/03 06:03:43;;;;;;;17.50;12.43;;;32.30;98.30;;;;;;4970536;28;20042;-66
2022/07/03 06:06:10;;;;;;;16.02;12.32;;;32.30;98.70;;;;;;4970471;28;20055;-65
2022/07/03 06:08:36;;;;;;;16.23;12.02;;;32.20;99.00;;;;;;4971547;28;20030;-66
2022/07/03 06:11:06;;;;;;;13.57;11.52;;;32.10;98.40;;;;;;4970802;28;20062;-66
2022/07/03 06:13:32;;;;;;;14.93;10.80;;;32.00;98.90;;;;;;4970584;28;20050;-67
2022/07/03 06:15:59;;;;;;;12.48;9.77;;;32.00;98.60;;;;;;4970239;28;20247;-65
2022/07/03 06:18:26;;;;;;;14.07;10.27;;;31.90;98.40;;;;;;4999448;28;20501;-65
2022/07/03 06:20:53;;;;;;;16.55;12.13;;;31.90;97.90;;;;;;5052044;28;20474;-65
2022/07/03 06:23:19;;;;;;;17.98;12.57;;;31.90;97.50;;;;;;5048483;28;20025;-64
2022/07/03 06:25:48;;;;;;;14.20;10.90;;;31.80;98.20;;;;;;5033963;28;20025;-63
2022/07/03 06:28:15;;;;;;;23.02;15.52;;;31.90;96.70;;;;;;5033409;28;20376;-66
2022/07/03 06:30:41;;;;;;;17.48;13.20;;;31.90;97.40;;;;;;5032038;28;20025;-67
2022/07/03 06:33:08;;;;;;;17.20;11.65;;;31.90;97.40;;;;;;5043117;28;20536;-67
2022/07/03 06:35:35;;;;;;;14.20;11.40;;;31.90;97.20;;;;;;5053174;28;20404;-67
2022/07/03 06:38:04;;;;;;;19.20;12.95;;;31.90;97.50;;;;;;5053276;28;20480;-66
2022/07/03 06:40:31;;;;;;;18.75;12.50;;;31.90;97.30;;;;;;5053527;28;20079;-65
2022/07/03 06:42:58;;;;;;;190.40;149.15;;;31.90;98.20;;;;;;5051745;28;20060;-67
2022/07/03 06:45:25;;;;;;;33.60;25.15;;;32.00;98.70;;;;;;5050376;28;20052;-66
2022/07/03 06:47:52;;;;;;;192.57;122.97;;;32.10;98.60;;;;;;5052473;28;20021;-65
2022/07/03 06:50:19;;;;;;;50.63;37.38;;;32.10;99.60;;;;;;5042053;28;20026;-64
2022/07/03 06:52:45;;;;;;;77.85;56.17;;;32.10;99.30;;;;;;5041612;28;20029;-66
2022/07/03 06:55:12;;;;;;;108.53;84.95;;;32.10;99.30;;;;;;5042023;28;20533;-64
2022/07/03 06:57:39;;;;;;;16.83;14.40;;;32.10;99.50;;;;;;5057755;28;20028;-66
2022/07/03 07:00:06;;;;;;;33.33;23.42;;;32.20;98.60;;;;;;5058056;28;20098;-66
2022/07/03 07:02:33;;;;;;;26.65;23.77;;;32.30;98.70;;;;;;5057810;28;20045;-67
2022/07/03 07:05:00;;;;;;;29.27;19.52;;;32.40;98.20;;;;;;5057535;28;20025;-67
2022/07/03 07:07:26;;;;;;;30.48;23.02;;;32.40;97.30;;;;;;5057864;28;20539;-66
2022/07/03 07:09:53;;;;;;;31.10;23.45;;;32.50;97.30;;;;;;5057405;28;21126;-66
2022/07/03 07:12:20;;;;;;;50.58;40.38;;;32.60;97.60;;;;;;5057221;28;20485;-66
2022/07/03 07:14:46;;;;;;;25.02;17.60;;;32.80;97.20;;;;;;5057294;28;20048;-66
2022/07/03 07:17:14;;;;;;;28.63;21.70;;;33.00;95.70;;;;;;5056959;28;20024;-66
2022/07/03 07:19:41;;;;;;;53.17;36.13;;;33.00;95.00;;;;;;5056407;28;20374;-66
2022/07/03 07:22:08;;;;;;;20.45;12.13;;;33.10;94.40;;;;;;5057381;28;20017;-66
2022/07/03 07:24:34;;;;;;;15.98;11.52;;;33.10;93.70;;;;;;5056797;28;20024;-66
2022/07/03 07:27:01;;;;;;;16.90;11.82;;;33.10;93.40;;;;;;5054535;28;20496;-66
2022/07/03 07:29:28;;;;;;;18.77;12.75;;;33.10;94.10;;;;;;5054046;28;20033;-66
2022/07/03 07:31:55;;;;;;;36.78;27.80;;;33.00;94.00;;;;;;5055378;28;20032;-65
2022/07/03 07:34:21;;;;;;;50.85;39.63;;;33.00;94.20;;;;;;5057535;28;20032;-67
2022/07/03 07:36:48;;;;;;;18.63;14.80;;;33.10;95.30;;;;;;5057172;28;20076;-68
2022/07/03 07:39:14;;;;;;;20.85;12.90;;;33.20;93.90;;;;;;5056454;28;20024;-67
2022/07/03 07:41:41;;;;;;;20.67;12.82;;;33.10;94.10;;;;;;5056125;28;20099;-69
2022/07/03 07:44:08;;;;;;;19.15;12.05;;;33.10;94.50;;;;;;5056351;28;20013;-67
2022/07/03 07:46:35;;;;;;;16.38;12.70;;;33.00;94.00;;;;;;5054463;28;20029;-71
2022/07/03 07:49:02;;;;;;;19.65;12.68;;;32.90;94.30;;;;;;5052805;28;20470;-67
2022/07/03 07:51:28;;;;;;;14.95;12.60;;;32.80;94.30;;;;;;5053496;28;20067;-71
2022/07/03 07:53:57;;;;;;;16.45;13.75;;;32.80;93.70;;;;;;5054549;28;20056;-69
2022/07/03 07:56:26;;;;;;;26.25;18.08;;;32.70;93.70;;;;;;5055537;28;20036;-68
2022/07/03 07:58:53;;;;;;;20.15;15.07;;;32.70;93.70;;;;;;5055741;28;20021;-69
2022/07/03 08:06:53;;;;;;;18.23;16.23;;;32.70;94.00;;;;;;5055316;28;20429;-67
2022/07/03 08:09:19;;;;;;;20.63;14.80;;;32.80;94.20;;;;;;5055515;28;20486;-68
2022/07/03 08:11:46;;;;;;;18.08;15.50;;;32.70;94.30;;;;;;5055503;28;20031;-68
2022/07/03 08:14:14;;;;;;;18.83;15.45;;;32.60;93.60;;;;;;5055462;28;20025;-70
2022/07/03 08:16:41;;;;;;;26.42;15.75;;;32.50;93.20;;;;;;5055422;28;20048;-68
2022/07/03 08:19:08;;;;;;;20.88;15.80;;;32.50;93.00;;;;;;5055514;28;20017;-67
2022/07/03 08:21:34;;;;;;;19.30;14.60;;;32.40;92.60;;;;;;5054505;28;20065;-66
2022/07/03 08:24:01;;;;;;;30.05;19.88;;;32.30;92.70;;;;;;5051022;28;20013;-69
2022/07/03 08:26:28;;;;;;;23.50;18.02;;;32.20;92.70;;;;;;5053518;28;20029;-70
2022/07/03 08:28:54;;;;;;;28.08;19.00;;;32.20;93.00;;;;;;5053073;28;20025;-68
2022/07/03 08:31:21;;;;;;;27.02;18.08;;;32.20;93.30;;;;;;5050915;28;20099;-69
2022/07/03 08:33:48;;;;;;;27.23;18.77;;;32.20;93.50;;;;;;5053887;28;20071;-69
2022/07/03 08:36:14;;;;;;;33.60;22.95;;;32.20;93.80;;;;;;5053708;28;20087;-69
2022/07/03 08:38:41;;;;;;;24.75;19.38;;;32.20;93.60;;;;;;5049760;28;20017;-68
2022/07/03 08:41:09;;;;;;;24.90;20.08;;;32.30;93.70;;;;;;5053102;28;20020;-67
2022/07/03 08:43:39;;;;;;;38.25;24.20;;;32.30;93.80;;;;;;5054974;28;20108;-68
2022/07/03 08:46:06;;;;;;;28.02;20.80;;;32.30;93.60;;;;;;5054824;28;20033;-68
2022/07/03 08:48:35;;;;;;;21.35;15.88;;;32.50;94.00;;;;;;5054954;28;20029;-68
2022/07/03 08:51:02;;;;;;;16.52;14.00;;;32.70;93.40;;;;;;5054846;28;20036;-68
2022/07/03 08:53:29;;;;;;;20.30;14.93;;;32.80;92.90;;;;;;5054588;28;20020;-68
2022/07/03 08:55:56;;;;;;;20.25;16.25;;;32.80;93.40;;;;;;5054309;28;20025;-68
2022/07/03 08:58:24;;;;;;;19.95;14.50;;;32.90;93.20;;;;;;5054578;28;20021;-68
2022/07/03 09:00:51;;;;;;;19.17;14.23;;;32.80;92.10;;;;;;5053614;28;20024;-67
2022/07/03 09:03:21;;;;;;;26.65;16.83;;;32.70;92.50;;;;;;5054658;28;20378;-71
2022/07/03 09:05:50;;;;;;;21.65;17.98;;;32.60;92.60;;;;;;5036751;28;20025;-68
2022/07/03 09:08:18;;;;;;;23.73;19.38;;;32.60;92.90;;;;;;5054875;28;20107;-68
2022/07/03 09:10:45;;;;;;;22.50;17.88;;;32.50;93.10;;;;;;5053690;28;20048;-67
2022/07/03 09:13:12;;;;;;;21.38;16.55;;;32.40;93.10;;;;;;5053965;28;20033;-67
2022/07/03 09:15:39;;;;;;;21.52;17.48;;;32.40;93.10;;;;;;5054157;28;20032;-67
2022/07/03 09:18:07;;;;;;;26.88;19.02;;;32.30;93.40;;;;;;5054119;28;20025;-67
2022/07/03 09:20:38;;;;;;;24.48;16.63;;;32.30;93.30;;;;;;5053979;28;20051;-68
2022/07/03 09:23:18;;;;;;;24.85;16.73;;;32.30;93.30;;;;;;5054129;28;20017;-68
2022/07/03 09:26:00;;;;;;;21.17;17.05;;;32.20;93.30;;;;;;5053399;28;20072;-67
2022/07/03 09:28:48;;;;;;;22.60;17.00;;;32.20;93.50;;;;;;5050622;28;20029;-68
2022/07/03 09:31:16;;;;;;;18.65;15.50;;;32.20;92.90;;;;;;5052339;28;20029;-68
2022/07/03 09:34:05;;;;;;;24.20;17.52;;;32.20;93.30;;;;;;5053988;28;20013;-66
2022/07/03 09:36:43;;;;;;;21.75;16.05;;;32.20;93.00;;;;;;5051712;28;20124;-68
2022/07/03 09:39:25;;;;;;;21.17;16.58;;;32.30;93.00;;;;;;5051534;28;20031;-68
2022/07/03 09:41:52;;;;;;;;;;;32.30;93.30;;;;;;5052475;28;20025;-67
2022/07/03 09:44:31;;;;;;;24.38;17.73;;;32.30;92.90;;;;;;5053875;28;19951;-67
2022/07/03 09:47:12;;;;;;;25.58;18.63;;;32.20;92.80;;;;;;5053582;28;20017;-68
2022/07/03 09:49:55;;;;;;;30.92;21.80;;;32.20;93.00;;;;;;5052284;28;20086;-68
2022/07/03 09:52:28;;;;;;;27.38;19.10;;;32.30;92.70;;;;;;5052615;28;20033;-68
2022/07/03 09:55:16;;;;;;;21.20;17.05;;;32.20;92.40;;;;;;5053227;28;20028;-68
2022/07/03 09:57:49;;;;;;;19.73;16.30;;;32.20;93.20;;;;;;5032322;28;20037;-69
2022/07/03 10:00:21;;;;;;;25.35;18.95;;;32.20;93.10;;;;;;5033639;28;20025;-69
2022/07/03 10:02:58;;;;;;;32.22;23.88;;;32.20;93.10;;;;;;5033419;28;20140;-69
2022/07/03 10:05:28;;;;;;;31.88;21.55;;;32.20;92.10;;;;;;5033471;28;20159;-69
2022/07/03 10:08:00;;;;;;;41.13;24.60;;;32.10;91.90;;;;;;5033384;28;20100;-69
2022/07/03 10:10:33;;;;;;;26.80;19.50;;;32.10;92.10;;;;;;5033610;28;20060;-68
2022/07/03 10:13:00;;;;;;;31.88;18.17;;;32.10;92.60;;;;;;5033431;28;20034;-69
2022/07/03 10:15:28;;;;;;;70.45;41.08;;;32.00;92.40;;;;;;5039249;28;20044;-68
2022/07/03 10:17:57;;;;;;;56.33;36.08;;;32.00;92.30;;;;;;5053054;28;20024;-68
2022/07/03 10:20:30;;;;;;;47.88;28.67;;;32.00;92.60;;;;;;5051699;28;20032;-68
2022/07/03 10:22:57;;;;;;;45.53;29.00;;;31.90;92.70;;;;;;5053337;28;20028;-68
2022/07/03 10:25:24;;;;;;;39.25;28.95;;;31.90;92.80;;;;;;5051333;28;20441;-68
2022/07/03 10:27:51;;;;;;;70.80;46.28;;;31.90;93.20;;;;;;5053072;28;20104;-68
2022/07/03 10:30:21;;;;;;;71.65;45.55;;;31.90;93.20;;;;;;5052939;28;20021;-68
2022/07/03 10:32:52;;;;;;;55.08;35.60;;;31.80;93.20;;;;;;5053052;28;20028;-69
2022/07/03 10:35:25;;;;;;;63.50;42.13;;;31.80;93.00;;;;;;5052664;28;20072;-69
2022/07/03 10:38:01;;;;;;;59.22;37.75;;;31.80;92.90;;;;;;5053024;28;20029;-69
2022/07/03 10:46:17;;;;;;;39.20;30.10;;;31.70;93.60;;;;;;5052202;28;20037;-68
2022/07/03 10:49:06;;;;;;;46.65;34.60;;;31.80;93.40;;;;;;5050316;28;20029;-68
2022/07/03 10:51:54;;;;;;;38.08;29.65;;;31.70;93.80;;;;;;5051703;28;20029;-68
2022/07/03 10:54:24;;;;;;;53.10;35.35;;;31.70;94.00;;;;;;5053092;28;20389;-68
2022/07/03 10:57:01;;;;;;;68.07;47.55;;;31.70;93.80;;;;;;5052880;28;20021;-67
2022/07/03 10:59:36;;;;;;;54.97;38.67;;;31.70;93.60;;;;;;5053248;28;20013;-68
2022/07/03 11:02:31;;;;;;;47.55;33.17;;;31.60;93.60;;;;;;5052336;28;20452;-68
2022/07/03 11:04:59;;;;;;;57.35;36.17;;;31.60;93.90;;;;;;5052838;28;20025;-69
2022/07/03 11:07:29;;;;;;;85.53;55.70;;;31.60;93.70;;;;;;5052857;28;20025;-68
2022/07/03 11:10:10;;;;;;;113.30;72.45;;;31.60;93.80;;;;;;5035736;28;20021;-69
2022/07/03 11:12:57;;;;;;;95.70;59.47;;;31.60;94.00;;;;;;5053027;28;20017;-68
2022/07/03 11:15:44;;;;;;;88.47;56.30;;;31.50;93.80;;;;;;5052704;28;20104;-69
2022/07/03 11:18:14;;;;;;;77.57;49.50;;;31.60;93.90;;;;;;5053205;28;20021;-70
2022/07/03 11:20:42;;;;;;;66.43;42.70;;;31.50;94.00;;;;;;5052241;28;20047;-68
2022/07/03 11:23:09;;;;;;;68.90;44.45;;;31.50;94.00;;;;;;5052672;28;20100;-68
2022/07/03 11:25:41;;;;;;;71.10;43.83;;;31.50;94.30;;;;;;5053308;28;20025;-69
2022/07/03 11:28:27;;;;;;;67.78;40.83;;;31.50;94.30;;;;;;5052714;28;20036;-70
2022/07/03 11:31:14;;;;;;;68.97;43.42;;;31.40;94.70;;;;;;5051232;28;20033;-71
2022/07/03 11:33:43;;;;;;;62.92;40.85;;;31.40;94.90;;;;;;5052071;28;20021;-70
2022/07/03 11:36:25;;;;;;;56.47;38.50;;;31.40;95.00;;;;;;5052488;28;20145;-70
2022/07/03 11:39:00;;;;;;;62.28;42.28;;;31.40;95.10;;;;;;5055710;28;20544;-70
2022/07/03 11:41:30;;;;;;;55.67;37.88;;;31.30;95.10;;;;;;5056274;28;20017;-69
2022/07/03 11:44:01;;;;;;;52.85;36.95;;;31.30;95.20;;;;;;5056140;28;20029;-70
2022/07/03 11:46:31;;;;;;;55.35;36.65;;;31.30;95.40;;;;;;5051753;28;20108;-71
2022/07/03 11:49:10;;;;;;;50.22;34.15;;;31.30;95.70;;;;;;5056191;28;20369;-70
2022/07/03 11:51:38;;;;;;;48.90;34.38;;;31.30;95.90;;;;;;5056170;28;20645;-70
2022/07/03 11:54:06;;;;;;;53.15;36.78;;;31.30;96.00;;;;;;5056028;28;20028;-69
2022/07/03 11:56:35;;;;;;;53.22;37.63;;;31.30;96.00;;;;;;5055432;28;20116;-70
2022/07/03 11:59:04;;;;;;;56.05;38.95;;;31.30;96.60;;;;;;5054383;28;20032;-70
2022/07/03 12:01:35;;;;;;;58.90;40.58;;;31.30;96.60;;;;;;5054847;28;20021;-71
2022/07/03 12:04:05;;;;;;;63.53;42.00;;;31.30;96.40;;;;;;5037759;28;20030;-70
2022/07/03 12:06:53;;;;;;;67.00;42.38;;;31.30;96.70;;;;;;5055480;28;20044;-70
2022/07/03 12:09:27;;;;;;;65.28;41.30;;;31.30;96.50;;;;;;5053808;28;20498;-70
2022/07/03 12:11:59;;;;;;;59.65;39.80;;;31.20;96.50;;;;;;5038027;28;20032;-72
2022/07/03 12:14:45;;;;;;;57.92;40.38;;;31.20;96.90;;;;;;5055794;28;20088;-71
2022/07/03 12:17:14;;;;;;;57.90;41.58;;;31.20;97.20;;;;;;5053828;28;20021;-70
2022/07/03 12:20:02;;;;;;;60.38;40.47;;;31.30;97.50;;;;;;5052132;28;20374;-71
2022/07/03 12:22:33;;;;;;;77.57;46.22;;;31.20;97.30;;;;;;5054475;28;20013;-70
2022/07/03 12:25:04;;;;;;;74.53;49.38;;;31.20;97.40;;;;;;5054413;28;20373;-70
2022/07/03 12:27:34;;;;;;;79.77;50.03;;;31.20;97.60;;;;;;5051882;28;20454;-70
2022/07/03 12:30:01;;;;;;;81.60;52.95;;;31.10;97.50;;;;;;5054377;28;20083;-74
2022/07/03 12:32:28;;;;;;;92.05;54.13;;;31.20;97.70;;;;;;5047804;28;20120;-70
2022/07/03 12:34:55;;;;;;;102.55;61.70;;;31.10;97.90;;;;;;5053800;28;20028;-71
2022/07/03 12:37:45;;;;;;;77.80;48.20;;;31.10;98.00;;;;;;5052743;28;20024;-72
2022/07/03 12:40:14;;;;;;;60.75;39.10;;;31.00;97.60;;;;;;5051175;28;20021;-72
2022/07/03 12:42:52;;;;;;;72.80;42.47;;;31.00;97.60;;;;;;5054620;28;20028;-70
2022/07/03 12:45:22;;;;;;;71.82;45.78;;;30.90;97.50;;;;;;5055138;28;20020;-72
2022/07/03 12:48:10;;;;;;;47.58;34.35;;;30.90;97.50;;;;;;5054344;28;20442;-71
2022/07/03 12:50:47;;;;;;;42.85;30.95;;;30.80;97.80;;;;;;5054883;28;20374;-72
2022/07/03 12:53:32;;;;;;;60.10;41.78;;;30.80;97.80;;;;;;5052221;28;20039;-71
2022/07/03 12:56:02;;;;;;;69.68;46.28;;;30.80;98.00;;;;;;5052936;28;20534;-71
2022/07/03 13:01:05;;;;;;;71.15;44.53;;;30.70;98.70;;;;;;5054209;28;20013;-71